Time;durP1;ratioP1;P1;durP2;ratioP2;P2;SDS_P1;SDS_P2;PMS_P1;PMS_P2;Temp;Humidity;BMP_temperature;BMP_pressure;BME280_temperature;BME280_humidity;BME280_pressure;Samples;Min_cycle;Max_cycle;Signal;HPM_P1;HPM_P2
2021/12/02 00:01:30;;;;;;;54.33;27.90;;;;;;;5.82;77.57;99700.19;3587364;40;20048;-61
2021/12/02 00:03:56;;;;;;;29.55;14.70;;;;;;;5.81;76.87;99697.63;3584268;40;20081;-62
2021/12/02 00:06:23;;;;;;;19.65;12.50;;;;;;;5.80;76.81;99707.44;3585832;40;20049;-62
2021/12/02 00:08:51;;;;;;;17.85;7.30;;;;;;;5.82;77.16;99705.53;3584840;40;20518;-62
2021/12/02 00:11:19;;;;;;;26.52;11.98;;;;;;;5.84;77.44;99710.78;3590049;40;20386;-62
2021/12/02 00:21:29;;;;;;;16.13;10.25;;;;;;;5.91;76.40;99716.59;3576830;40;20062;-63
2021/12/02 00:23:58;;;;;;;21.10;12.75;;;;;;;5.93;77.09;99720.06;3585638;40;20442;-63
2021/12/02 00:26:24;;;;;;;15.13;8.20;;;;;;;5.90;77.47;99720.19;3584026;40;20055;-63
2021/12/02 00:28:58;;;;;;;14.27;6.78;;;;;;;5.90;77.20;99722.88;3583760;40;20072;-63
2021/12/02 00:31:29;;;;;;;;;;;;;;;5.89;77.13;99722.00;3583931;40;20036;-64
2021/12/02 00:33:59;;;;;;;14.18;5.30;;;;;;;5.90;77.26;99722.88;3587142;40;20274;-63
2021/12/02 00:36:29;;;;;;;17.98;7.10;;;;;;;5.91;78.15;99719.28;3583853;40;20052;-64
2021/12/02 00:38:57;;;;;;;12.25;3.63;;;;;;;5.92;78.31;99715.66;3587130;40;20342;-63
2021/12/02 00:41:28;;;;;;;13.68;3.58;;;;;;;5.94;78.22;99714.63;3584719;40;20095;-63
2021/12/02 00:43:57;;;;;;;14.02;4.57;;;;;;;5.93;78.10;99704.03;3589138;40;20359;-63
2021/12/02 00:46:27;;;;;;;10.65;3.22;;;;;;;5.93;78.51;99709.38;3585396;40;20056;-63
2021/12/02 00:48:53;;;;;;;5.63;2.60;;;;;;;5.91;78.18;99709.47;3590034;40;20160;-63
2021/12/02 00:51:20;;;;;;;11.52;3.10;;;;;;;5.91;78.31;99705.94;3590278;40;20044;-62
2021/12/02 00:53:52;;;;;;;10.30;2.65;;;;;;;5.91;78.61;99708.59;3585172;40;20268;-63
2021/12/02 00:56:24;;;;;;;18.35;6.85;;;;;;;5.91;78.43;99703.28;3588645;40;20106;-63
2021/12/02 00:58:51;;;;;;;15.30;6.38;;;;;;;5.89;79.16;99706.00;3589049;40;20141;-63
2021/12/02 01:01:20;;;;;;;10.32;2.92;;;;;;;5.16;78.57;99598.47;3588525;40;20106;-63
2021/12/02 01:03:53;;;;;;;12.52;4.82;;;;;;;5.88;79.07;99695.47;3588423;40;20052;-63
2021/12/02 01:06:19;;;;;;;6.47;2.30;;;;;;;5.85;78.99;99696.50;3585385;40;20060;-63
2021/12/02 01:08:45;;;;;;;11.20;4.53;;;;;;;5.84;79.48;99700.13;3592631;40;20083;-63
2021/12/02 01:11:12;;;;;;;9.77;2.75;;;;;;;5.78;79.88;99695.16;3586531;40;20620;-62
2021/12/02 01:13:38;;;;;;;10.00;2.65;;;;;;;5.84;79.51;99704.59;3587464;40;20052;-63
2021/12/02 01:16:04;;;;;;;10.18;2.55;;;;;;;5.84;79.42;99716.13;3586100;40;20487;-63
2021/12/02 01:18:30;;;;;;;13.82;4.55;;;;;;;5.82;79.84;99716.19;3585019;39;20046;-62
2021/12/02 01:20:57;;;;;;;12.05;2.63;;;;;;;5.83;79.49;99711.72;3585123;40;20060;-63
2021/12/02 01:23:26;;;;;;;8.32;1.88;;;;;;;5.58;79.67;99664.34;3586715;40;20063;-62
2021/12/02 01:26:02;;;;;;;6.00;1.73;;;;;;;5.86;79.73;99718.69;3588561;40;20044;-62
2021/12/02 01:28:30;;;;;;;9.20;2.17;;;;;;;5.86;79.02;99721.34;3585162;40;20389;-67
2021/12/02 01:30:56;;;;;;;7.20;1.90;;;;;;;5.58;79.87;99669.66;3585150;40;20391;-64
2021/12/02 01:33:26;;;;;;;5.70;1.58;;;;;;;5.81;78.71;99714.50;3587891;40;20060;-62
2021/12/02 01:36:00;;;;;;;5.20;1.35;;;;;;;5.76;77.82;99708.56;3590163;40;20044;-62
2021/12/02 01:38:29;;;;;;;6.28;1.42;;;;;;;5.72;77.91;99720.38;3588487;40;20080;-62
2021/12/02 01:40:57;;;;;;;6.30;1.23;;;;;;;5.69;78.31;99728.56;3590972;40;20406;-62
2021/12/02 01:43:50;;;;;;;4.10;1.25;;;;;;;5.65;78.12;99724.34;3594935;40;20420;-62
2021/12/02 01:46:21;;;;;;;5.53;1.73;;;;;;;5.63;78.91;99731.56;3586703;40;20063;-62
2021/12/02 01:49:02;;;;;;;5.45;1.63;;;;;;;5.61;78.89;99725.47;3589611;40;20303;-61
2021/12/02 01:51:28;;;;;;;4.93;1.70;;;;;;;5.58;79.18;99723.88;3586782;40;20065;-62
2021/12/02 01:54:11;;;;;;;7.10;1.80;;;;;;;5.56;79.65;99724.91;3584004;40;20057;-62
2021/12/02 01:56:54;;;;;;;5.20;1.77;;;;;;;5.48;79.99;99717.34;3579071;40;20284;-63
2021/12/02 01:59:28;;;;;;;8.07;1.67;;;;;;;5.37;80.05;99697.63;3588043;40;20059;-62
2021/12/02 02:02:01;;;;;;;7.55;1.80;;;;;;;5.50;79.66;99733.25;3589909;40;20051;-62
2021/12/02 02:04:27;;;;;;;7.57;1.50;;;;;;;5.45;79.46;99719.31;3584906;40;20059;-62
2021/12/02 02:06:59;;;;;;;3.78;1.58;;;;;;;5.43;79.48;99718.56;3589801;40;20055;-62
2021/12/02 02:09:29;;;;;;;3.85;1.52;;;;;;;5.39;79.60;99723.19;3588708;40;20311;-62
2021/12/02 02:11:56;;;;;;;6.32;1.88;;;;;;;5.35;79.42;99730.50;3587209;40;20063;-61
2021/12/02 02:14:26;;;;;;;5.32;1.50;;;;;;;5.32;79.02;99728.03;3589325;40;20056;-62
2021/12/02 02:16:52;;;;;;;4.50;1.85;;;;;;;5.26;78.79;99727.53;3589764;40;20106;-65
2021/12/02 02:19:18;;;;;;;5.95;1.50;;;;;;;5.20;79.37;99731.44;3587455;40;20088;-65
2021/12/02 02:21:44;;;;;;;6.43;1.80;;;;;;;5.15;79.11;99730.81;3591674;39;20063;-62
2021/12/02 02:24:14;;;;;;;7.72;2.30;;;;;;;5.11;79.03;99731.94;3591371;40;20088;-62
2021/12/02 02:26:42;;;;;;;6.63;1.90;;;;;;;5.07;79.07;99730.38;3585985;40;20401;-62
2021/12/02 02:29:12;;;;;;;3.67;1.80;;;;;;;5.03;79.37;99732.38;3587447;40;20056;-62
2021/12/02 02:31:41;;;;;;;3.55;1.50;;;;;;;5.00;79.19;99727.22;3592873;39;20088;-62
2021/12/02 02:34:08;;;;;;;4.63;1.65;;;;;;;4.97;79.16;99721.19;3591876;40;20048;-62
2021/12/02 02:36:40;;;;;;;4.53;1.60;;;;;;;4.57;79.76;99664.88;3588135;40;20100;-61
2021/12/02 02:39:06;;;;;;;4.78;1.70;;;;;;;4.68;79.52;99681.09;3586621;40;20084;-61
2021/12/02 02:41:39;;;;;;;7.57;2.00;;;;;;;4.93;79.53;99730.31;3588734;40;20318;-62
2021/12/02 02:44:08;;;;;;;6.22;2.10;;;;;;;4.94;80.04;99729.38;3586962;40;20386;-62
2021/12/02 02:46:38;;;;;;;2.90;1.50;;;;;;;4.92;79.53;99723.28;3591955;40;20071;-62
2021/12/02 02:49:09;;;;;;;3.33;1.60;;;;;;;4.59;78.85;99678.94;3590607;40;20113;-62
2021/12/02 02:51:37;;;;;;;3.10;1.35;;;;;;;4.85;79.20;99728.94;3592648;40;20415;-64
2021/12/02 02:54:10;;;;;;;6.22;1.42;;;;;;;4.37;79.53;99642.88;3588750;40;20059;-61
2021/12/02 02:57:27;;;;;;;4.75;1.38;;;;;;;4.62;79.10;99697.41;3588957;40;20055;-61
2021/12/02 03:05:25;;;;;;;2.65;1.10;;;;;;;4.79;79.17;99723.97;3597184;39;20040;-89
2021/12/02 03:07:53;;;;;;;6.35;1.88;;;;;;;3.20;78.63;99472.06;3596856;39;20045;-89
2021/12/02 03:10:44;;;;;;;5.55;1.70;;;;;;;4.72;78.69;99730.56;3588286;39;20093;-89
2021/12/02 03:13:21;;;;;;;5.28;1.75;;;;;;;4.66;79.52;99722.91;3593597;39;20102;-90
2021/12/02 03:18:39;;;;;;;6.35;1.73;;;;;;;3.39;79.13;99528.59;3577430;39;20092;-89
2021/12/02 03:21:24;;;;;;;4.00;1.50;;;;;;;3.89;79.56;99610.06;3586284;40;20037;-89
2021/12/02 03:23:53;;;;;;;5.90;1.75;;;;;;;4.67;79.97;99743.28;3596822;39;20029;-89
2021/12/02 03:26:21;;;;;;;6.03;1.90;;;;;;;4.68;79.94;99752.97;3593578;39;20024;-88
2021/12/02 03:28:52;;;;;;;7.68;1.67;;;;;;;3.45;79.66;99530.91;3596748;39;20051;-89
2021/12/02 03:31:20;;;;;;;4.32;1.70;;;;;;;4.72;79.54;99738.53;3586093;39;20082;-88
2021/12/02 03:33:47;;;;;;;5.45;1.58;;;;;;;4.75;79.61;99761.47;3588045;39;20044;-87
2021/12/02 03:36:15;;;;;;;6.93;1.67;;;;;;;4.24;79.93;99663.13;3596780;39;20061;-90
2021/12/02 03:38:41;;;;;;;11.05;2.03;;;;;;;4.80;79.59;99746.97;3593391;39;20036;-88
2021/12/02 03:41:08;;;;;;;5.30;1.70;;;;;;;4.82;79.21;99752.19;3587874;39;20071;-88
2021/12/02 03:43:42;;;;;;;10.50;1.88;;;;;;;4.51;79.76;99691.84;3595312;39;20041;-87
2021/12/02 03:46:12;;;;;;;5.90;1.60;;;;;;;3.91;79.34;99602.88;3579437;39;20048;-87
2021/12/02 03:48:38;;;;;;;7.95;1.55;;;;;;;4.93;78.81;99772.94;3595557;39;20061;-88
2021/12/02 03:51:06;;;;;;;4.63;1.20;;;;;;;4.35;78.32;99678.53;3590054;39;20072;-89
2021/12/02 03:53:32;;;;;;;7.65;1.67;;;;;;;4.96;77.86;99759.44;3596757;39;20044;-88
2021/12/02 03:55:58;;;;;;;10.48;1.50;;;;;;;5.00;77.99;99766.31;3583671;40;20033;-86
2021/12/02 03:58:23;;;;;;;6.28;1.33;;;;;;;5.03;77.77;99758.16;3588917;39;20042;-87
2021/12/02 04:00:49;;;;;;;4.68;1.35;;;;;;;3.49;78.02;99495.28;3585922;40;20040;-90
2021/12/02 04:03:15;;;;;;;6.32;1.40;;;;;;;3.49;77.87;99497.94;3586528;39;20048;-87
2021/12/02 04:05:41;;;;;;;5.82;1.50;;;;;;;4.43;76.87;99658.50;3581109;39;20045;-89
2021/12/02 04:08:10;;;;;;;5.60;1.48;;;;;;;4.85;76.96;99733.41;3586365;39;20622;-87
2021/12/02 04:10:36;;;;;;;5.43;1.42;;;;;;;4.92;77.67;99747.25;3596563;39;20804;-88
2021/12/02 04:13:16;;;;;;;3.92;1.30;;;;;;;4.89;77.96;99741.13;3587178;39;20047;-90
2021/12/02 04:15:49;;;;;;;7.03;1.30;;;;;;;4.54;78.47;99678.38;3589160;39;20057;-90
2021/12/02 04:18:15;;;;;;;4.05;1.58;;;;;;;4.86;78.16;99738.66;3588970;39;20044;-89
2021/12/02 04:20:40;;;;;;;8.60;1.45;;;;;;;4.86;78.27;99746.63;3595804;39;20092;-90
2021/12/02 04:23:06;;;;;;;3.63;1.45;;;;;;;3.86;78.61;99572.16;3583698;40;20057;-88
2021/12/02 04:25:32;;;;;;;7.30;1.50;;;;;;;3.54;78.36;99516.28;3594315;39;20133;-89
2021/12/02 04:28:03;;;;;;;5.80;1.20;;;;;;;4.91;78.63;99758.81;3596176;39;20094;-88
2021/12/02 04:30:42;;;;;;;5.10;1.48;;;;;;;3.56;78.17;99537.47;3594867;39;20124;-88
2021/12/02 04:33:08;;;;;;;3.67;1.17;;;;;;;2.55;77.75;99385.25;3584020;40;20734;-89
2021/12/02 04:35:33;;;;;;;6.13;1.67;;;;;;;3.64;78.01;99556.50;3584751;40;20045;-89
2021/12/02 04:37:59;;;;;;;3.35;1.13;;;;;;;4.79;78.18;99747.03;3596090;39;20045;-90
2021/12/02 04:40:25;;;;;;;3.90;1.48;;;;;;;2.25;78.67;99344.41;3596345;39;20039;-89
2021/12/02 04:42:54;;;;;;;8.55;1.42;;;;;;;4.78;78.56;99770.16;3584941;39;20052;-92
2021/12/02 04:45:26;;;;;;;5.47;1.10;;;;;;;4.78;78.05;99748.84;3587653;39;20036;-94
2021/12/02 04:47:55;;;;;;;5.95;1.20;;;;;;;2.95;78.69;99452.16;3588825;39;20102;-91
2021/12/02 04:50:21;;;;;;;6.22;1.67;;;;;;;2.56;78.83;99380.81;3588802;39;20107;-91
2021/12/02 04:52:47;;;;;;;4.35;1.13;;;;;;;3.73;78.25;99614.47;3585752;39;20064;-89
2021/12/02 04:55:15;;;;;;;6.38;1.27;;;;;;;2.22;78.58;99334.84;3582297;39;20052;-90
2021/12/02 04:57:40;;;;;;;8.02;1.55;;;;;;;3.92;78.67;99641.78;3595941;39;20068;-90
2021/12/02 05:00:07;;;;;;;4.95;1.40;;;;;;;1.65;77.94;99253.84;3585813;40;20052;-90
2021/12/02 05:02:33;;;;;;;7.30;1.75;;;;;;;4.67;78.38;99772.56;3588397;39;20065;-91
2021/12/02 05:05:08;;;;;;;5.53;1.80;;;;;;;4.62;78.64;99785.25;3586778;39;20039;-92
2021/12/02 05:07:35;;;;;;;6.47;1.48;;;;;;;4.57;79.17;99779.31;3616618;22;20059;-62
2021/12/02 05:10:03;;;;;;;5.72;1.98;;;;;;;4.59;79.45;99774.75;3581445;40;20048;-62
2021/12/02 05:12:28;;;;;;;6.88;1.52;;;;;;;4.51;79.58;99763.69;3583994;40;20072;-62
2021/12/02 05:14:54;;;;;;;9.00;1.60;;;;;;;4.60;79.92;99776.50;3585011;40;20056;-62
2021/12/02 05:17:19;;;;;;;3.40;1.88;;;;;;;4.70;80.16;99796.34;3582622;40;20056;-59
2021/12/02 05:19:46;;;;;;;8.15;1.70;;;;;;;4.58;79.46;99773.06;3583085;40;20049;-59
2021/12/02 05:22:12;;;;;;;8.50;1.52;;;;;;;4.66;78.63;99792.09;3583133;40;20377;-63
2021/12/02 05:24:38;;;;;;;4.88;1.23;;;;;;;4.68;78.68;99806.22;3584869;40;20304;-62
2021/12/02 05:27:04;;;;;;;4.20;1.00;;;;;;;4.63;77.81;99803.81;3581014;40;20056;-62
2021/12/02 05:29:29;;;;;;;6.13;1.15;;;;;;;4.51;77.71;99787.63;3583125;40;20403;-62
2021/12/02 05:31:55;;;;;;;5.00;0.98;;;;;;;4.51;77.39;99796.47;3582195;40;20079;-59
2021/12/02 05:34:20;;;;;;;4.32;1.15;;;;;;;4.43;76.93;99796.88;3583152;40;20055;-60
2021/12/02 05:36:46;;;;;;;4.32;0.98;;;;;;;4.43;76.87;99791.53;3585438;40;20048;-60
2021/12/02 05:39:12;;;;;;;4.20;0.75;;;;;;;4.31;77.51;99775.38;3582156;40;20068;-60
2021/12/02 05:41:38;;;;;;;3.33;1.00;;;;;;;4.32;77.38;99788.63;3579810;40;20067;-60
2021/12/02 05:44:04;;;;;;;4.43;0.80;;;;;;;4.27;76.68;99787.97;3571393;40;20113;-60
2021/12/02 05:46:30;;;;;;;3.85;0.70;;;;;;;4.06;77.48;99766.03;3583407;40;20291;-60
2021/12/02 05:48:55;;;;;;;3.40;0.68;;;;;;;4.17;77.71;99792.06;3585342;40;20052;-61
2021/12/02 05:51:21;;;;;;;2.95;0.63;;;;;;;4.11;77.91;99811.00;3579226;40;20065;-61
2021/12/02 05:53:47;;;;;;;2.33;0.50;;;;;;;3.95;78.56;99790.50;3584150;40;20064;-60
2021/12/02 05:56:12;;;;;;;5.03;0.85;;;;;;;4.16;78.68;99819.63;3582899;40;20090;-60
2021/12/02 05:58:38;;;;;;;1.90;0.70;;;;;;;4.06;78.38;99813.91;3582134;40;20055;-60
2021/12/02 06:01:04;;;;;;;1.52;0.80;;;;;;;4.13;78.54;99822.44;3584714;40;20052;-62
2021/12/02 06:03:30;;;;;;;2.42;0.80;;;;;;;4.10;78.67;99801.31;3581797;40;20067;-64
2021/12/02 06:05:56;;;;;;;3.78;0.70;;;;;;;4.12;78.28;99804.72;3583036;40;20052;-60
2021/12/02 06:08:22;;;;;;;1.63;0.32;;;;;;;4.08;77.33;99813.81;3583115;40;20143;-61
2021/12/02 06:10:48;;;;;;;3.08;0.63;;;;;;;4.05;76.80;99800.69;3582793;40;20056;-61
2021/12/02 06:13:14;;;;;;;0.93;0.47;;;;;;;3.93;77.54;99802.16;3583275;40;20056;-60
2021/12/02 06:15:39;;;;;;;1.75;0.60;;;;;;;3.82;78.18;99789.41;3580132;40;20076;-61
2021/12/02 06:18:05;;;;;;;3.33;0.77;;;;;;;3.87;77.93;99806.00;3582942;40;20110;-61
2021/12/02 06:20:31;;;;;;;2.25;0.57;;;;;;;3.76;78.40;99794.19;3580026;40;20492;-61
2021/12/02 06:22:56;;;;;;;1.17;0.50;;;;;;;3.80;78.90;99817.88;3584529;40;20040;-61
2021/12/02 06:27:53;;;;;;;3.88;0.70;;;;;;;3.66;78.44;99813.25;3584308;40;20132;-62
2021/12/02 06:30:24;;;;;;;5.00;0.70;;;;;;;3.65;78.96;99823.97;3587233;40;20224;-61
2021/12/02 06:32:51;;;;;;;1.95;1.00;;;;;;;3.67;79.95;99825.59;3578255;40;20053;-61
2021/12/02 06:35:16;;;;;;;4.00;0.90;;;;;;;3.72;79.85;99831.56;3579878;40;20339;-62
2021/12/02 06:37:45;;;;;;;9.30;1.85;;;;;;;3.76;80.16;99821.63;3574219;40;20056;-62
2021/12/02 06:40:12;;;;;;;4.60;1.10;;;;;;;3.78;80.25;99830.41;3579953;40;20423;-61
2021/12/02 06:42:39;;;;;;;3.05;1.40;;;;;;;3.77;80.36;99819.81;3582083;40;20071;-61
2021/12/02 06:45:05;;;;;;;4.57;1.13;;;;;;;3.82;80.38;99821.31;3582029;40;20060;-61
2021/12/02 06:47:32;;;;;;;6.80;1.30;;;;;;;3.82;80.30;99821.31;3582788;40;20072;-62
2021/12/02 06:50:01;;;;;;;3.38;1.40;;;;;;;3.71;80.38;99807.69;3581525;40;20049;-63
2021/12/02 06:52:27;;;;;;;5.47;1.77;;;;;;;3.81;80.71;99824.06;3583340;40;20060;-62
2021/12/02 06:54:54;;;;;;;4.78;1.63;;;;;;;3.78;80.65;99833.06;3583489;40;20134;-62
2021/12/02 06:57:21;;;;;;;3.20;1.70;;;;;;;3.72;80.26;99841.31;3583553;40;20375;-61
2021/12/02 06:59:47;;;;;;;8.60;2.25;;;;;;;3.82;80.70;99865.66;3580046;40;20059;-60
2021/12/02 07:02:12;;;;;;;7.07;2.35;;;;;;;3.76;80.17;99852.66;3582920;40;20048;-60
2021/12/02 07:04:39;;;;;;;4.68;2.17;;;;;;;3.79;80.12;99852.50;3581127;40;20055;-61
2021/12/02 07:07:05;;;;;;;4.80;1.88;;;;;;;3.78;79.63;99856.13;3581038;40;20087;-61
2021/12/02 07:09:31;;;;;;;4.55;1.90;;;;;;;3.87;78.82;99872.47;3577820;40;20080;-61
2021/12/02 07:11:56;;;;;;;5.35;2.30;;;;;;;3.89;79.07;99867.91;3583751;40;20056;-61
2021/12/02 07:14:24;;;;;;;7.00;2.00;;;;;;;4.01;79.54;99876.22;3582101;40;20052;-62
2021/12/02 07:16:50;;;;;;;7.75;3.50;;;;;;;4.06;79.69;99888.38;3574674;40;20364;-61
2021/12/02 07:19:15;;;;;;;8.93;3.60;;;;;;;4.09;79.94;99879.34;3580162;40;20090;-61
2021/12/02 07:21:42;;;;;;;6.90;2.90;;;;;;;4.12;79.98;99877.44;3582369;40;20126;-61
2021/12/02 07:24:14;;;;;;;3.63;2.20;;;;;;;4.15;79.26;99889.69;3581619;40;20383;-61
2021/12/02 07:26:44;;;;;;;2.47;2.08;;;;;;;4.18;79.18;99892.19;3578341;40;20464;-61
2021/12/02 07:29:13;;;;;;;9.90;2.58;;;;;;;4.17;78.86;99894.00;3578400;40;20373;-61
2021/12/02 07:31:41;;;;;;;5.45;1.80;;;;;;;4.19;78.45;99909.88;3579951;40;20044;-62
2021/12/02 07:34:07;;;;;;;7.57;2.10;;;;;;;4.19;77.41;99896.59;3580752;40;20056;-61
2021/12/02 07:36:35;;;;;;;2.92;1.80;;;;;;;4.21;77.86;99907.13;3581685;40;20044;-61
2021/12/02 07:39:07;;;;;;;6.82;2.03;;;;;;;4.15;78.02;99895.88;3576834;40;20079;-61
2021/12/02 07:41:32;;;;;;;4.57;2.05;;;;;;;4.21;78.23;99901.81;3581723;40;20049;-61
2021/12/02 07:43:58;;;;;;;4.93;2.50;;;;;;;4.22;78.71;99915.06;3583474;40;20078;-61
2021/12/02 07:46:24;;;;;;;6.15;2.42;;;;;;;4.23;78.63;99911.44;3576350;40;20093;-62
2021/12/02 07:48:49;;;;;;;4.10;2.40;;;;;;;4.27;79.68;99917.47;3578358;40;20044;-62
2021/12/02 07:51:17;;;;;;;5.95;2.40;;;;;;;4.26;78.70;99913.94;3584290;40;20060;-61
2021/12/02 07:53:46;;;;;;;3.10;2.00;;;;;;;4.30;78.49;99915.50;3583803;40;20060;-61
2021/12/02 07:56:16;;;;;;;4.05;1.95;;;;;;;4.22;78.11;99901.75;3586301;40;20405;-61
2021/12/02 07:58:46;;;;;;;4.43;2.40;;;;;;;4.21;77.89;99905.34;3585685;40;20040;-61
2021/12/02 08:01:14;;;;;;;4.25;2.25;;;;;;;4.21;78.29;99912.47;3582147;40;20438;-61
2021/12/02 08:03:47;;;;;;;4.72;2.20;;;;;;;4.13;77.73;99920.84;3581522;40;20056;-61
2021/12/02 08:06:16;;;;;;;5.43;2.60;;;;;;;4.16;78.37;99929.53;3580260;40;20072;-61
2021/12/02 08:08:45;;;;;;;5.63;3.17;;;;;;;4.11;78.30;99920.91;3578076;40;20379;-61
2021/12/02 08:11:12;;;;;;;6.78;3.13;;;;;;;4.07;78.52;99915.81;3583643;40;20092;-61
2021/12/02 08:13:38;;;;;;;5.97;3.05;;;;;;;4.09;78.74;99925.44;3585705;40;20055;-61
2021/12/02 08:16:07;;;;;;;6.53;3.25;;;;;;;4.06;78.32;99930.03;3585226;40;20052;-61
2021/12/02 08:18:34;;;;;;;5.30;3.03;;;;;;;3.98;78.52;99926.91;3585258;40;20053;-61
2021/12/02 08:21:00;;;;;;;8.82;3.25;;;;;;;3.93;78.42;99930.66;3584846;40;20460;-61
2021/12/02 08:23:27;;;;;;;6.47;2.85;;;;;;;3.84;78.29;99924.94;3581518;40;20090;-61
2021/12/02 08:25:55;;;;;;;5.13;3.53;;;;;;;3.87;79.09;99925.63;3578843;40;20053;-61
2021/12/02 08:28:21;;;;;;;12.77;4.60;;;;;;;3.86;78.59;99937.19;3583544;40;20087;-61
2021/12/02 08:30:48;;;;;;;6.05;3.30;;;;;;;3.79;78.57;99933.13;3580077;40;20088;-61
2021/12/02 08:33:17;;;;;;;5.30;3.70;;;;;;;3.80;78.37;99942.81;3584238;40;20394;-61
2021/12/02 08:35:43;;;;;;;3.60;2.70;;;;;;;3.74;79.36;99937.78;3580800;40;20048;-62
2021/12/02 08:38:10;;;;;;;8.07;3.28;;;;;;;3.75;78.75;99947.50;3575469;40;20307;-62
2021/12/02 08:40:39;;;;;;;7.68;3.17;;;;;;;3.74;79.17;99943.09;3583313;40;20053;-62
2021/12/02 08:43:10;;;;;;;5.30;2.80;;;;;;;3.73;79.39;99944.03;3585261;40;20071;-60
2021/12/02 08:45:40;;;;;;;6.07;2.58;;;;;;;3.76;79.57;99949.22;3586245;40;20052;-62
2021/12/02 08:48:08;;;;;;;4.00;2.50;;;;;;;3.75;78.81;99952.81;3583447;40;20049;-61
2021/12/02 08:50:37;;;;;;;6.57;2.50;;;;;;;3.78;79.16;99965.97;3581478;40;20069;-62
2021/12/02 08:53:05;;;;;;;7.53;2.33;;;;;;;3.77;79.42;99966.00;3585325;40;20059;-61
2021/12/02 08:55:31;;;;;;;5.15;2.08;;;;;;;3.83;79.32;99979.00;3583277;40;20071;-61
2021/12/02 08:57:59;;;;;;;4.95;2.28;;;;;;;3.86;78.96;99985.03;3581620;40;20045;-61
2021/12/02 09:00:33;;;;;;;4.47;2.35;;;;;;;3.95;79.56;99997.03;3583786;40;20075;-61
2021/12/02 09:03:00;;;;;;;;;;;;;;;4.07;80.00;99998.25;3617803;23;20379;-64
2021/12/02 09:05:26;;;;;;;5.25;2.38;;;;;;;4.16;80.23;100000.47;3582091;40;20029;-64
2021/12/02 09:07:52;;;;;;;4.60;2.33;;;;;;;3.93;79.30;99959.03;3581881;40;20052;-63
2021/12/02 09:10:21;;;;;;;6.63;2.58;;;;;;;4.34;78.75;100009.34;3577083;40;20060;-63
2021/12/02 09:12:49;;;;;;;7.47;2.47;;;;;;;4.38;78.81;100016.25;3583693;40;20098;-64
2021/12/02 09:15:17;;;;;;;7.53;2.70;;;;;;;4.46;78.29;100022.03;3582686;40;20056;-64
2021/12/02 09:17:43;;;;;;;6.25;2.50;;;;;;;4.21;78.40;99966.50;3581972;40;20339;-63
2021/12/02 09:20:12;;;;;;;7.32;2.10;;;;;;;4.67;77.93;100025.44;3586474;40;20390;-64
2021/12/02 09:22:39;;;;;;;6.57;2.00;;;;;;;4.74;77.43;100026.84;3583711;40;20088;-64
2021/12/02 09:25:06;;;;;;;9.38;2.75;;;;;;;4.78;77.59;100028.41;3579442;40;20387;-64
2021/12/02 09:27:32;;;;;;;7.03;3.05;;;;;;;4.77;77.13;100018.69;3581680;40;20059;-64
2021/12/02 09:29:59;;;;;;;3.88;1.95;;;;;;;4.75;76.54;100033.03;3578266;40;20044;-64
2021/12/02 09:32:24;;;;;;;6.68;2.28;;;;;;;4.70;76.53;100033.28;3581245;40;20067;-64
2021/12/02 09:34:50;;;;;;;6.53;1.88;;;;;;;4.75;76.31;100033.03;3583609;40;20377;-64
2021/12/02 09:37:16;;;;;;;2.85;1.80;;;;;;;4.74;76.67;100048.13;3584585;40;20122;-64
2021/12/02 09:39:42;;;;;;;9.32;1.95;;;;;;;4.67;76.24;100046.72;3579899;40;20341;-64
2021/12/02 09:42:11;;;;;;;4.72;1.60;;;;;;;4.71;76.32;100044.78;3579513;40;20350;-65
2021/12/02 09:44:38;;;;;;;3.63;1.48;;;;;;;4.70;76.38;100043.91;3577381;40;20052;-64
2021/12/02 09:47:06;;;;;;;4.13;1.55;;;;;;;4.68;76.39;100040.47;3580524;40;20057;-64
2021/12/02 09:49:34;;;;;;;6.20;1.83;;;;;;;4.70;76.83;100043.91;3576585;40;20095;-64
2021/12/02 09:52:03;;;;;;;4.72;1.67;;;;;;;4.72;76.78;100046.47;3577096;40;20068;-64
2021/12/02 09:54:37;;;;;;;4.60;1.48;;;;;;;4.76;76.63;100048.06;3576207;40;20052;-64
2021/12/02 09:57:05;;;;;;;5.72;1.60;;;;;;;4.84;77.07;100045.88;3576115;40;20452;-64
2021/12/02 09:59:45;;;;;;;7.20;2.58;;;;;;;4.91;77.18;100035.75;3575368;40;20056;-65
2021/12/02 10:02:17;;;;;;;4.22;2.20;;;;;;;5.01;76.59;100037.00;3580096;40;20088;-65
2021/12/02 10:04:53;;;;;;;6.65;1.90;;;;;;;5.13;76.43;100031.91;3575732;40;20060;-65
2021/12/02 10:12:33;;;;;;;6.25;2.45;;;;;;;5.61;75.34;100026.72;3581039;40;20044;-65
2021/12/02 10:15:01;;;;;;;6.28;1.80;;;;;;;6.01;75.45;100048.56;3577075;40;20390;-64
2021/12/02 10:17:34;;;;;;;6.07;2.40;;;;;;;6.22;73.30;100039.38;3578538;40;20055;-65
2021/12/02 10:25:55;;;;;;;5.85;2.55;;;;;;;6.09;72.02;100057.03;3578588;40;20053;-65
2021/12/02 10:28:22;;;;;;;4.68;2.47;;;;;;;6.01;72.32;100056.56;3575808;40;20051;-63
2021/12/02 10:30:54;;;;;;;10.02;3.85;;;;;;;5.98;73.36;100065.59;3577652;40;20396;-64
2021/12/02 10:33:38;;;;;;;8.45;1.98;;;;;;;6.00;73.52;100062.88;3577633;40;20052;-64
2021/12/02 10:36:22;;;;;;;8.60;2.15;;;;;;;5.96;73.00;100069.28;3579891;40;20053;-64
2021/12/02 10:38:48;;;;;;;8.38;1.80;;;;;;;5.84;73.12;100064.63;3580629;40;20056;-65
2021/12/02 10:41:23;;;;;;;8.13;2.22;;;;;;;5.72;73.26;100067.00;3578023;40;20064;-65
2021/12/02 10:44:15;;;;;;;7.97;1.95;;;;;;;5.67;74.12;100074.38;3587178;40;20126;-65
2021/12/02 10:47:02;;;;;;;9.90;2.25;;;;;;;5.65;74.29;100084.28;3578198;40;21413;-65
2021/12/02 10:49:39;;;;;;;5.30;1.70;;;;;;;5.57;74.33;100083.81;3578721;40;20040;-65
2021/12/02 10:52:09;;;;;;;5.28;1.98;;;;;;;5.53;74.07;100092.94;3574863;40;20052;-65
2021/12/02 10:54:42;;;;;;;8.73;2.63;;;;;;;5.49;73.81;100086.91;3577512;40;20048;-65
2021/12/02 10:57:19;;;;;;;7.68;2.40;;;;;;;5.48;74.00;100094.97;3576337;40;20276;-65
2021/12/02 10:59:48;;;;;;;9.02;2.30;;;;;;;5.49;75.04;100096.72;3579614;40;20421;-65
2021/12/02 11:02:29;;;;;;;9.35;2.58;;;;;;;5.50;75.02;100093.09;3574928;40;20048;-65
2021/12/02 11:05:22;;;;;;;9.75;2.55;;;;;;;5.50;75.69;100090.41;3576023;40;20068;-65
2021/12/02 11:08:04;;;;;;;6.57;2.38;;;;;;;5.46;76.37;100075.53;3579348;40;20058;-65
2021/12/02 11:10:35;;;;;;;11.55;3.70;;;;;;;4.94;76.21;99977.88;3576446;40;20052;-65
2021/12/02 11:13:00;;;;;;;11.18;3.83;;;;;;;5.73;75.69;100098.03;3579434;40;20052;-65
2021/12/02 11:15:31;;;;;;;8.88;2.88;;;;;;;5.78;75.68;100104.00;3574526;40;20096;-66
2021/12/02 11:18:04;;;;;;;9.52;2.65;;;;;;;5.74;75.09;100109.56;3575360;40;20442;-65
2021/12/02 11:20:45;;;;;;;6.70;2.47;;;;;;;5.75;75.36;100109.50;3575630;40;20049;-65
2021/12/02 11:23:19;;;;;;;5.72;2.30;;;;;;;5.80;76.25;100111.91;3579251;40;20052;-66
2021/12/02 11:26:00;;;;;;;6.97;2.53;;;;;;;5.82;75.88;100100.22;3577386;40;20078;-66
2021/12/02 11:28:33;;;;;;;5.05;2.40;;;;;;;5.80;74.78;100107.47;3578778;40;20076;-65
2021/12/02 11:31:13;;;;;;;9.95;2.63;;;;;;;5.84;75.36;100109.97;3574979;40;20533;-66
2021/12/02 11:33:42;;;;;;;6.63;2.42;;;;;;;5.99;73.53;100111.81;3577099;40;20060;-66
2021/12/02 11:36:25;;;;;;;6.82;2.65;;;;;;;5.76;74.01;100047.22;3576157;40;20149;-65
2021/12/02 11:38:58;;;;;;;8.93;2.50;;;;;;;6.57;74.39;100107.75;3584106;40;20055;-66
2021/12/02 11:41:26;;;;;;;4.93;2.20;;;;;;;6.74;72.32;100113.81;3575703;40;20088;-65
2021/12/02 11:43:53;;;;;;;4.30;2.10;;;;;;;6.80;72.07;100125.09;3574261;40;20045;-65
2021/12/02 11:46:20;;;;;;;6.75;2.80;;;;;;;6.81;71.85;100119.66;3574946;40;20044;-65
2021/12/02 11:48:47;;;;;;;6.82;1.80;;;;;;;6.72;70.06;100118.41;3583707;40;20048;-65
2021/12/02 11:51:21;;;;;;;5.53;1.70;;;;;;;6.59;69.88;100111.16;3579242;40;20072;-64
2021/12/02 11:53:48;;;;;;;1.20;0.93;;;;;;;6.51;69.97;100120.47;3574329;40;20116;-65
2021/12/02 11:56:18;;;;;;;2.85;1.25;;;;;;;6.43;70.13;100119.19;3574351;40;20058;-63
2021/12/02 11:58:45;;;;;;;2.38;0.75;;;;;;;6.49;70.10;100121.50;3578811;40;20082;-64
2021/12/02 12:01:22;;;;;;;2.50;0.80;;;;;;;6.37;69.61;100112.38;3578338;40;20066;-64
2021/12/02 12:03:54;;;;;;;2.83;0.90;;;;;;;6.22;69.02;100114.09;3576861;40;20054;-63
2021/12/02 12:06:29;;;;;;;1.08;0.68;;;;;;;6.08;69.66;100105.97;3575299;40;20102;-62
2021/12/02 12:08:57;;;;;;;3.92;0.80;;;;;;;5.90;70.43;100106.94;3574955;40;20053;-63
2021/12/02 12:11:31;;;;;;;0.95;0.90;;;;;;;5.72;71.61;100103.47;3573878;40;20055;-63
2021/12/02 12:14:06;;;;;;;3.83;1.10;;;;;;;5.54;72.57;100094.63;3580208;40;20049;-64
2021/12/02 12:16:43;;;;;;;2.92;0.98;;;;;;;5.45;73.60;100101.31;3578102;40;20048;-63
2021/12/02 12:19:26;;;;;;;3.20;1.05;;;;;;;5.16;74.51;100068.19;3576456;40;20149;-64